sensor_id;sensor_type;location;lat;lon;timestamp;P1;durP1;ratioP1;P2;durP2;ratioP2
5454;SDS011;2750;49.050;9.250;2023-12-20T00:03:41;12.40;;;11.10;;
5454;SDS011;2750;49.050;9.250;2023-12-20T00:08:44;12.93;;;10.87;;
5454;SDS011;2750;49.050;9.250;2023-12-20T00:13:45;17.03;;;12.00;;
5454;SDS011;2750;49.050;9.250;2023-12-20T00:18:47;14.27;;;11.07;;
5454;SDS011;2750;49.050;9.250;2023-12-20T00:23:50;17.10;;;10.90;;
5454;SDS011;2750;49.050;9.250;2023-12-20T00:28:51;14.07;;;12.30;;
5454;SDS011;2750;49.050;9.250;2023-12-20T00:33:53;13.73;;;11.77;;
5454;SDS011;2750;49.050;9.250;2023-12-20T00:38:57;16.70;;;13.27;;
5454;SDS011;2750;49.050;9.250;2023-12-20T00:43:59;19.37;;;13.50;;
5454;SDS011;2750;49.050;9.250;2023-12-20T00:49:00;17.93;;;14.57;;
5454;SDS011;2750;49.050;9.250;2023-12-20T00:54:03;24.03;;;15.60;;
5454;SDS011;2750;49.050;9.250;2023-12-20T00:59:05;18.87;;;14.87;;
5454;SDS011;2750;49.050;9.250;2023-12-20T01:04:06;24.77;;;18.03;;
5454;SDS011;2750;49.050;9.250;2023-12-20T01:09:09;21.50;;;16.17;;
5454;SDS011;2750;49.050;9.250;2023-12-20T01:14:11;20.77;;;16.93;;
5454;SDS011;2750;49.050;9.250;2023-12-20T01:19:12;24.70;;;17.80;;
5454;SDS011;2750;49.050;9.250;2023-12-20T01:24:16;21.63;;;16.43;;
5454;SDS011;2750;49.050;9.250;2023-12-20T01:29:17;26.17;;;17.37;;
5454;SDS011;2750;49.050;9.250;2023-12-20T01:34:19;23.50;;;17.70;;
5454;SDS011;2750;49.050;9.250;2023-12-20T01:39:22;24.37;;;17.53;;
5454;SDS011;2750;49.050;9.250;2023-12-20T01:44:23;20.20;;;16.53;;
5454;SDS011;2750;49.050;9.250;2023-12-20T01:49:25;21.87;;;15.67;;
5454;SDS011;2750;49.050;9.250;2023-12-20T01:54:28;19.00;;;15.10;;
5454;SDS011;2750;49.050;9.250;2023-12-20T01:59:30;20.00;;;13.77;;
5454;SDS011;2750;49.050;9.250;2023-12-20T02:04:32;16.10;;;11.80;;
5454;SDS011;2750;49.050;9.250;2023-12-20T02:09:34;9.40;;;7.17;;
5454;SDS011;2750;49.050;9.250;2023-12-20T02:14:37;4.30;;;3.87;;
5454;SDS011;2750;49.050;9.250;2023-12-20T02:19:39;3.83;;;3.10;;
5454;SDS011;2750;49.050;9.250;2023-12-20T02:24:42;2.17;;;1.97;;
5454;SDS011;2750;49.050;9.250;2023-12-20T02:29:43;2.13;;;1.93;;
5454;SDS011;2750;49.050;9.250;2023-12-20T02:34:45;1.70;;;1.50;;
5454;SDS011;2750;49.050;9.250;2023-12-20T02:39:49;1.67;;;1.30;;
5454;SDS011;2750;49.050;9.250;2023-12-20T02:44:51;2.33;;;1.73;;
5454;SDS011;2750;49.050;9.250;2023-12-20T02:49:52;1.30;;;1.20;;
5454;SDS011;2750;49.050;9.250;2023-12-20T02:54:55;1.43;;;1.10;;
5454;SDS011;2750;49.050;9.250;2023-12-20T02:59:57;0.83;;;0.83;;
5454;SDS011;2750;49.050;9.250;2023-12-20T03:04:58;1.67;;;1.33;;
5454;SDS011;2750;49.050;9.250;2023-12-20T03:10:01;0.60;;;0.60;;
5454;SDS011;2750;49.050;9.250;2023-12-20T03:15:03;0.80;;;0.80;;
5454;SDS011;2750;49.050;9.250;2023-12-20T03:20:06;1.13;;;1.03;;
5454;SDS011;2750;49.050;9.250;2023-12-20T03:25:10;0.93;;;0.90;;
5454;SDS011;2750;49.050;9.250;2023-12-20T03:30:12;1.03;;;0.80;;
5454;SDS011;2750;49.050;9.250;2023-12-20T03:35:14;0.73;;;0.73;;
5454;SDS011;2750;49.050;9.250;2023-12-20T03:40:17;0.80;;;0.80;;
5454;SDS011;2750;49.050;9.250;2023-12-20T03:45:18;1.53;;;1.43;;
5454;SDS011;2750;49.050;9.250;2023-12-20T03:50:20;1.87;;;0.93;;
5454;SDS011;2750;49.050;9.250;2023-12-20T03:55:22;0.90;;;0.90;;
5454;SDS011;2750;49.050;9.250;2023-12-20T04:00:24;1.10;;;1.00;;
5454;SDS011;2750;49.050;9.250;2023-12-20T04:05:25;0.97;;;0.93;;
5454;SDS011;2750;49.050;9.250;2023-12-20T04:10:28;1.17;;;1.07;;
5454;SDS011;2750;49.050;9.250;2023-12-20T04:15:30;1.47;;;1.37;;
5454;SDS011;2750;49.050;9.250;2023-12-20T04:20:31;1.00;;;1.00;;
5454;SDS011;2750;49.050;9.250;2023-12-20T04:25:34;1.10;;;1.00;;
5454;SDS011;2750;49.050;9.250;2023-12-20T04:30:36;1.40;;;1.20;;
5454;SDS011;2750;49.050;9.250;2023-12-20T04:35:38;1.50;;;1.27;;
5454;SDS011;2750;49.050;9.250;2023-12-20T04:40:42;1.30;;;1.20;;
5454;SDS011;2750;49.050;9.250;2023-12-20T04:45:44;1.47;;;1.10;;
5454;SDS011;2750;49.050;9.250;2023-12-20T04:50:45;1.60;;;1.30;;
5454;SDS011;2750;49.050;9.250;2023-12-20T04:55:48;1.47;;;1.37;;
5454;SDS011;2750;49.050;9.250;2023-12-20T05:00:49;1.90;;;1.70;;
5454;SDS011;2750;49.050;9.250;2023-12-20T05:05:51;2.27;;;1.57;;
5454;SDS011;2750;49.050;9.250;2023-12-20T05:10:54;1.77;;;1.63;;
5454;SDS011;2750;49.050;9.250;2023-12-20T05:15:56;4.23;;;2.17;;
5454;SDS011;2750;49.050;9.250;2023-12-20T05:20:57;3.10;;;2.30;;
5454;SDS011;2750;49.050;9.250;2023-12-20T05:26:00;3.40;;;2.53;;
5454;SDS011;2750;49.050;9.250;2023-12-20T05:31:02;3.87;;;3.17;;
5454;SDS011;2750;49.050;9.250;2023-12-20T05:36:04;3.70;;;3.40;;
5454;SDS011;2750;49.050;9.250;2023-12-20T05:41:10;3.30;;;3.00;;
5454;SDS011;2750;49.050;9.250;2023-12-20T05:46:12;2.97;;;2.70;;
5454;SDS011;2750;49.050;9.250;2023-12-20T05:51:13;5.23;;;3.87;;
5454;SDS011;2750;49.050;9.250;2023-12-20T05:56:16;3.60;;;3.30;;
5454;SDS011;2750;49.050;9.250;2023-12-20T06:01:18;3.50;;;3.20;;
5454;SDS011;2750;49.050;9.250;2023-12-20T06:06:19;3.60;;;3.30;;
5454;SDS011;2750;49.050;9.250;2023-12-20T06:11:23;2.90;;;2.70;;
5454;SDS011;2750;49.050;9.250;2023-12-20T06:16:25;3.20;;;2.90;;
5454;SDS011;2750;49.050;9.250;2023-12-20T06:21:26;3.20;;;2.90;;
5454;SDS011;2750;49.050;9.250;2023-12-20T06:26:29;2.83;;;2.63;;
5454;SDS011;2750;49.050;9.250;2023-12-20T06:31:31;3.40;;;3.10;;
5454;SDS011;2750;49.050;9.250;2023-12-20T06:36:33;4.53;;;4.10;;
5454;SDS011;2750;49.050;9.250;2023-12-20T06:41:36;5.77;;;4.90;;
5454;SDS011;2750;49.050;9.250;2023-12-20T06:46:37;5.57;;;5.07;;
5454;SDS011;2750;49.050;9.250;2023-12-20T06:51:39;5.80;;;4.77;;
5454;SDS011;2750;49.050;9.250;2023-12-20T06:56:41;5.30;;;4.80;;
5454;SDS011;2750;49.050;9.250;2023-12-20T07:01:47;7.13;;;5.57;;
5454;SDS011;2750;49.050;9.250;2023-12-20T07:06:49;7.40;;;6.00;;
5454;SDS011;2750;49.050;9.250;2023-12-20T07:11:53;6.20;;;5.60;;
5454;SDS011;2750;49.050;9.250;2023-12-20T07:16:54;6.27;;;5.63;;
5454;SDS011;2750;49.050;9.250;2023-12-20T07:21:57;6.43;;;5.77;;
5454;SDS011;2750;49.050;9.250;2023-12-20T07:27:00;7.10;;;6.40;;
5454;SDS011;2750;49.050;9.250;2023-12-20T07:32:02;8.63;;;7.73;;
5454;SDS011;2750;49.050;9.250;2023-12-20T07:37:03;8.40;;;5.57;;
5454;SDS011;2750;49.050;9.250;2023-12-20T07:42:06;6.70;;;5.53;;
5454;SDS011;2750;49.050;9.250;2023-12-20T07:47:08;7.87;;;7.07;;
5454;SDS011;2750;49.050;9.250;2023-12-20T07:52:10;8.90;;;8.00;;
5454;SDS011;2750;49.050;9.250;2023-12-20T07:57:12;8.20;;;6.47;;
5454;SDS011;2750;49.050;9.250;2023-12-20T08:02:14;7.77;;;6.97;;
5454;SDS011;2750;49.050;9.250;2023-12-20T08:07:16;8.37;;;7.57;;
5454;SDS011;2750;49.050;9.250;2023-12-20T08:12:18;8.50;;;7.70;;
5454;SDS011;2750;49.050;9.250;2023-12-20T08:17:20;9.10;;;7.37;;
5454;SDS011;2750;49.050;9.250;2023-12-20T08:22:23;8.37;;;7.33;;
5454;SDS011;2750;49.050;9.250;2023-12-20T08:27:26;7.90;;;7.07;;
5454;SDS011;2750;49.050;9.250;2023-12-20T08:32:28;8.67;;;6.70;;
5454;SDS011;2750;49.050;9.250;2023-12-20T08:37:29;8.17;;;5.97;;
5454;SDS011;2750;49.050;9.250;2023-12-20T08:42:34;7.30;;;5.53;;
5454;SDS011;2750;49.050;9.250;2023-12-20T08:47:35;7.20;;;4.93;;
5454;SDS011;2750;49.050;9.250;2023-12-20T08:52:37;4.50;;;4.10;;
5454;SDS011;2750;49.050;9.250;2023-12-20T08:57:40;6.57;;;4.00;;
5454;SDS011;2750;49.050;9.250;2023-12-20T09:02:41;3.77;;;2.93;;
5454;SDS011;2750;49.050;9.250;2023-12-20T09:07:43;6.07;;;4.07;;
5454;SDS011;2750;49.050;9.250;2023-12-20T09:12:46;3.27;;;2.60;;
5454;SDS011;2750;49.050;9.250;2023-12-20T09:17:47;3.30;;;2.60;;
5454;SDS011;2750;49.050;9.250;2023-12-20T09:22:49;4.53;;;2.30;;
5454;SDS011;2750;49.050;9.250;2023-12-20T09:27:52;6.93;;;2.83;;
5454;SDS011;2750;49.050;9.250;2023-12-20T09:32:54;4.20;;;2.83;;
5454;SDS011;2750;49.050;9.250;2023-12-20T09:37:55;4.13;;;3.30;;
5454;SDS011;2750;49.050;9.250;2023-12-20T09:42:59;4.07;;;3.23;;
5454;SDS011;2750;49.050;9.250;2023-12-20T09:48:05;3.53;;;2.33;;
5454;SDS011;2750;49.050;9.250;2023-12-20T09:53:08;3.37;;;2.30;;
5454;SDS011;2750;49.050;9.250;2023-12-20T09:58:14;3.10;;;2.30;;
5454;SDS011;2750;49.050;9.250;2023-12-20T10:03:15;5.20;;;2.10;;
5454;SDS011;2750;49.050;9.250;2023-12-20T10:08:18;4.50;;;2.40;;
5454;SDS011;2750;49.050;9.250;2023-12-20T10:13:24;7.23;;;2.37;;
5454;SDS011;2750;49.050;9.250;2023-12-20T10:18:25;3.50;;;1.90;;
5454;SDS011;2750;49.050;9.250;2023-12-20T10:23:27;5.23;;;1.97;;
5454;SDS011;2750;49.050;9.250;2023-12-20T10:28:33;2.30;;;1.73;;
5454;SDS011;2750;49.050;9.250;2023-12-20T10:33:35;3.00;;;2.03;;
5454;SDS011;2750;49.050;9.250;2023-12-20T10:38:37;3.70;;;2.03;;
5454;SDS011;2750;49.050;9.250;2023-12-20T10:43:44;5.70;;;2.30;;
5454;SDS011;2750;49.050;9.250;2023-12-20T10:48:47;4.83;;;1.80;;
5454;SDS011;2750;49.050;9.250;2023-12-20T10:53:51;3.63;;;1.60;;
5454;SDS011;2750;49.050;9.250;2023-12-20T10:58:55;6.73;;;1.60;;
5454;SDS011;2750;49.050;9.250;2023-12-20T11:03:59;4.97;;;1.90;;
5454;SDS011;2750;49.050;9.250;2023-12-20T11:09:03;7.83;;;1.60;;
5454;SDS011;2750;49.050;9.250;2023-12-20T11:14:16;1.70;;;1.20;;
5454;SDS011;2750;49.050;9.250;2023-12-20T11:19:23;6.27;;;1.83;;
5454;SDS011;2750;49.050;9.250;2023-12-20T11:24:25;2.43;;;1.30;;
5454;SDS011;2750;49.050;9.250;2023-12-20T11:29:31;2.53;;;1.47;;
5454;SDS011;2750;49.050;9.250;2023-12-20T11:34:36;4.47;;;1.57;;
5454;SDS011;2750;49.050;9.250;2023-12-20T11:39:38;4.07;;;2.30;;
5454;SDS011;2750;49.050;9.250;2023-12-20T11:44:40;5.00;;;1.83;;
5454;SDS011;2750;49.050;9.250;2023-12-20T11:49:46;7.10;;;2.40;;
5454;SDS011;2750;49.050;9.250;2023-12-20T11:54:48;5.77;;;2.20;;
5454;SDS011;2750;49.050;9.250;2023-12-20T11:59:52;5.87;;;2.10;;
5454;SDS011;2750;49.050;9.250;2023-12-20T12:04:54;4.83;;;2.40;;
5454;SDS011;2750;49.050;9.250;2023-12-20T12:09:56;5.90;;;2.30;;
5454;SDS011;2750;49.050;9.250;2023-12-20T12:14:59;5.47;;;2.33;;
5454;SDS011;2750;49.050;9.250;2023-12-20T12:20:01;3.47;;;1.87;;
5454;SDS011;2750;49.050;9.250;2023-12-20T12:25:12;5.43;;;2.30;;
5454;SDS011;2750;49.050;9.250;2023-12-20T12:30:15;5.83;;;2.40;;
5454;SDS011;2750;49.050;9.250;2023-12-20T12:35:18;2.87;;;1.90;;
5454;SDS011;2750;49.050;9.250;2023-12-20T12:40:20;3.00;;;1.90;;
5454;SDS011;2750;49.050;9.250;2023-12-20T12:45:23;3.27;;;1.90;;
5454;SDS011;2750;49.050;9.250;2023-12-20T12:50:25;4.20;;;2.03;;
5454;SDS011;2750;49.050;9.250;2023-12-20T12:55:28;6.53;;;2.40;;
5454;SDS011;2750;49.050;9.250;2023-12-20T13:00:31;9.23;;;2.60;;
5454;SDS011;2750;49.050;9.250;2023-12-20T13:05:33;3.83;;;2.47;;
5454;SDS011;2750;49.050;9.250;2023-12-20T13:10:35;5.07;;;2.50;;
5454;SDS011;2750;49.050;9.250;2023-12-20T13:15:38;2.87;;;1.87;;
5454;SDS011;2750;49.050;9.250;2023-12-20T13:20:40;5.47;;;1.90;;
5454;SDS011;2750;49.050;9.250;2023-12-20T13:25:42;3.90;;;2.27;;
5454;SDS011;2750;49.050;9.250;2023-12-20T13:30:45;6.37;;;2.60;;
5454;SDS011;2750;49.050;9.250;2023-12-20T13:35:46;2.80;;;1.93;;
5454;SDS011;2750;49.050;9.250;2023-12-20T13:40:48;5.30;;;2.40;;
5454;SDS011;2750;49.050;9.250;2023-12-20T13:45:50;6.43;;;2.90;;
5454;SDS011;2750;49.050;9.250;2023-12-20T13:50:52;5.27;;;2.93;;
5454;SDS011;2750;49.050;9.250;2023-12-20T13:55:54;7.37;;;2.33;;
5454;SDS011;2750;49.050;9.250;2023-12-20T14:00:57;6.13;;;2.17;;
5454;SDS011;2750;49.050;9.250;2023-12-20T14:05:59;8.50;;;2.77;;
5454;SDS011;2750;49.050;9.250;2023-12-20T14:11:01;5.33;;;2.53;;
5454;SDS011;2750;49.050;9.250;2023-12-20T14:16:04;5.33;;;2.80;;
5454;SDS011;2750;49.050;9.250;2023-12-20T14:21:06;3.90;;;2.30;;
5454;SDS011;2750;49.050;9.250;2023-12-20T14:26:08;4.83;;;2.50;;
5454;SDS011;2750;49.050;9.250;2023-12-20T14:31:15;3.63;;;2.63;;
5454;SDS011;2750;49.050;9.250;2023-12-20T14:36:17;10.40;;;3.50;;
5454;SDS011;2750;49.050;9.250;2023-12-20T14:41:18;6.57;;;3.13;;
5454;SDS011;2750;49.050;9.250;2023-12-20T14:46:22;7.20;;;3.30;;
5454;SDS011;2750;49.050;9.250;2023-12-20T14:51:23;9.53;;;3.20;;
5454;SDS011;2750;49.050;9.250;2023-12-20T14:56:25;3.83;;;3.03;;
5454;SDS011;2750;49.050;9.250;2023-12-20T15:01:28;5.10;;;2.50;;
5454;SDS011;2750;49.050;9.250;2023-12-20T15:06:31;6.57;;;2.90;;
5454;SDS011;2750;49.050;9.250;2023-12-20T15:11:33;2.37;;;2.03;;
5454;SDS011;2750;49.050;9.250;2023-12-20T15:16:36;5.87;;;2.43;;
5454;SDS011;2750;49.050;9.250;2023-12-20T15:21:38;5.07;;;2.70;;
5454;SDS011;2750;49.050;9.250;2023-12-20T15:26:42;10.53;;;2.73;;
5454;SDS011;2750;49.050;9.250;2023-12-20T15:31:46;5.83;;;3.10;;
5454;SDS011;2750;49.050;9.250;2023-12-20T15:36:48;6.63;;;2.93;;
5454;SDS011;2750;49.050;9.250;2023-12-20T15:41:49;10.27;;;2.93;;
5454;SDS011;2750;49.050;9.250;2023-12-20T15:46:53;5.70;;;2.53;;
5454;SDS011;2750;49.050;9.250;2023-12-20T15:51:54;5.13;;;2.50;;
5454;SDS011;2750;49.050;9.250;2023-12-20T15:56:56;5.20;;;3.57;;
5454;SDS011;2750;49.050;9.250;2023-12-20T16:01:59;8.97;;;2.90;;
5454;SDS011;2750;49.050;9.250;2023-12-20T16:07:00;4.27;;;2.43;;
5454;SDS011;2750;49.050;9.250;2023-12-20T16:12:02;4.47;;;2.13;;
5454;SDS011;2750;49.050;9.250;2023-12-20T16:17:06;4.43;;;2.40;;
5454;SDS011;2750;49.050;9.250;2023-12-20T16:22:07;5.13;;;2.80;;
5454;SDS011;2750;49.050;9.250;2023-12-20T16:27:09;3.97;;;2.30;;
5454;SDS011;2750;49.050;9.250;2023-12-20T16:32:11;7.27;;;2.40;;
5454;SDS011;2750;49.050;9.250;2023-12-20T16:37:13;8.83;;;2.63;;
5454;SDS011;2750;49.050;9.250;2023-12-20T16:42:15;7.33;;;2.63;;
5454;SDS011;2750;49.050;9.250;2023-12-20T16:47:18;9.50;;;2.53;;
5454;SDS011;2750;49.050;9.250;2023-12-20T16:52:19;7.53;;;2.57;;
5454;SDS011;2750;49.050;9.250;2023-12-20T16:57:21;7.00;;;2.33;;
5454;SDS011;2750;49.050;9.250;2023-12-20T17:02:24;7.13;;;2.40;;
5454;SDS011;2750;49.050;9.250;2023-12-20T17:07:25;5.37;;;2.20;;
5454;SDS011;2750;49.050;9.250;2023-12-20T17:12:27;4.10;;;2.33;;
5454;SDS011;2750;49.050;9.250;2023-12-20T17:17:30;4.13;;;2.27;;
5454;SDS011;2750;49.050;9.250;2023-12-20T17:22:32;5.30;;;2.30;;
5454;SDS011;2750;49.050;9.250;2023-12-20T17:27:33;3.57;;;1.97;;
5454;SDS011;2750;49.050;9.250;2023-12-20T17:32:36;4.47;;;1.70;;
5454;SDS011;2750;49.050;9.250;2023-12-20T17:37:39;6.97;;;2.37;;
5454;SDS011;2750;49.050;9.250;2023-12-20T17:42:41;3.47;;;2.03;;
5454;SDS011;2750;49.050;9.250;2023-12-20T17:47:44;4.80;;;1.90;;
5454;SDS011;2750;49.050;9.250;2023-12-20T17:52:45;3.67;;;2.03;;
5454;SDS011;2750;49.050;9.250;2023-12-20T17:57:47;3.40;;;1.83;;
5454;SDS011;2750;49.050;9.250;2023-12-20T18:02:49;2.77;;;1.77;;
5454;SDS011;2750;49.050;9.250;2023-12-20T18:07:52;2.90;;;2.20;;
5454;SDS011;2750;49.050;9.250;2023-12-20T18:12:54;3.87;;;2.40;;
5454;SDS011;2750;49.050;9.250;2023-12-20T18:17:57;3.00;;;1.70;;
5454;SDS011;2750;49.050;9.250;2023-12-20T18:22:58;4.27;;;2.07;;
5454;SDS011;2750;49.050;9.250;2023-12-20T18:28:00;4.93;;;1.47;;
5454;SDS011;2750;49.050;9.250;2023-12-20T18:33:03;4.43;;;2.37;;
5454;SDS011;2750;49.050;9.250;2023-12-20T18:38:05;5.23;;;2.10;;
5454;SDS011;2750;49.050;9.250;2023-12-20T18:43:06;6.23;;;2.30;;
5454;SDS011;2750;49.050;9.250;2023-12-20T18:48:09;9.23;;;2.90;;
5454;SDS011;2750;49.050;9.250;2023-12-20T18:53:11;11.87;;;4.97;;
5454;SDS011;2750;49.050;9.250;2023-12-20T18:58:12;2.93;;;1.60;;
5454;SDS011;2750;49.050;9.250;2023-12-20T19:03:15;4.67;;;1.80;;
5454;SDS011;2750;49.050;9.250;2023-12-20T19:08:17;3.37;;;2.00;;
5454;SDS011;2750;49.050;9.250;2023-12-20T19:13:19;8.27;;;2.20;;
5454;SDS011;2750;49.050;9.250;2023-12-20T19:18:21;2.80;;;1.93;;
5454;SDS011;2750;49.050;9.250;2023-12-20T19:23:23;3.20;;;1.80;;
5454;SDS011;2750;49.050;9.250;2023-12-20T19:28:25;2.37;;;1.83;;
5454;SDS011;2750;49.050;9.250;2023-12-20T19:33:28;2.20;;;1.90;;
5454;SDS011;2750;49.050;9.250;2023-12-20T19:38:30;2.67;;;1.70;;
5454;SDS011;2750;49.050;9.250;2023-12-20T19:43:31;2.47;;;1.60;;
5454;SDS011;2750;49.050;9.250;2023-12-20T19:48:34;2.17;;;1.80;;
5454;SDS011;2750;49.050;9.250;2023-12-20T19:53:36;3.60;;;2.10;;
5454;SDS011;2750;49.050;9.250;2023-12-20T19:58:37;4.30;;;1.97;;
5454;SDS011;2750;49.050;9.250;2023-12-20T20:03:40;2.93;;;1.70;;
5454;SDS011;2750;49.050;9.250;2023-12-20T20:08:42;2.27;;;1.30;;
5454;SDS011;2750;49.050;9.250;2023-12-20T20:13:43;1.87;;;1.50;;
5454;SDS011;2750;49.050;9.250;2023-12-20T20:18:46;2.47;;;1.53;;
5454;SDS011;2750;49.050;9.250;2023-12-20T20:23:48;1.73;;;1.60;;
5454;SDS011;2750;49.050;9.250;2023-12-20T20:28:49;3.47;;;1.40;;
5454;SDS011;2750;49.050;9.250;2023-12-20T20:33:52;4.53;;;1.63;;
5454;SDS011;2750;49.050;9.250;2023-12-20T20:38:54;1.97;;;1.40;;
5454;SDS011;2750;49.050;9.250;2023-12-20T20:43:55;2.33;;;1.70;;
5454;SDS011;2750;49.050;9.250;2023-12-20T20:48:58;4.33;;;1.60;;
5454;SDS011;2750;49.050;9.250;2023-12-20T20:54:00;3.57;;;1.40;;
5454;SDS011;2750;49.050;9.250;2023-12-20T20:59:03;1.67;;;1.30;;
5454;SDS011;2750;49.050;9.250;2023-12-20T21:04:06;2.07;;;1.30;;
5454;SDS011;2750;49.050;9.250;2023-12-20T21:09:08;2.43;;;1.60;;
5454;SDS011;2750;49.050;9.250;2023-12-20T21:14:10;1.87;;;1.67;;
5454;SDS011;2750;49.050;9.250;2023-12-20T21:19:12;4.20;;;1.60;;
5454;SDS011;2750;49.050;9.250;2023-12-20T21:24:14;2.23;;;1.43;;
5454;SDS011;2750;49.050;9.250;2023-12-20T21:29:16;2.93;;;1.50;;
5454;SDS011;2750;49.050;9.250;2023-12-20T21:34:19;1.87;;;1.47;;
5454;SDS011;2750;49.050;9.250;2023-12-20T21:39:20;1.67;;;1.33;;
5454;SDS011;2750;49.050;9.250;2023-12-20T21:44:24;2.10;;;1.47;;
5454;SDS011;2750;49.050;9.250;2023-12-20T21:49:27;2.77;;;1.40;;
5454;SDS011;2750;49.050;9.250;2023-12-20T21:54:28;1.53;;;1.17;;
5454;SDS011;2750;49.050;9.250;2023-12-20T21:59:30;1.20;;;1.07;;
5454;SDS011;2750;49.050;9.250;2023-12-20T22:04:33;1.87;;;1.10;;
5454;SDS011;2750;49.050;9.250;2023-12-20T22:09:35;1.70;;;1.07;;
5454;SDS011;2750;49.050;9.250;2023-12-20T22:14:37;2.83;;;1.10;;
5454;SDS011;2750;49.050;9.250;2023-12-20T22:19:40;2.20;;;1.07;;
5454;SDS011;2750;49.050;9.250;2023-12-20T22:24:41;1.40;;;0.90;;
5454;SDS011;2750;49.050;9.250;2023-12-20T22:29:43;1.13;;;1.03;;
5454;SDS011;2750;49.050;9.250;2023-12-20T22:34:47;2.60;;;1.40;;
5454;SDS011;2750;49.050;9.250;2023-12-20T22:39:49;1.10;;;1.00;;
5454;SDS011;2750;49.050;9.250;2023-12-20T22:44:50;2.40;;;0.87;;
5454;SDS011;2750;49.050;9.250;2023-12-20T22:49:56;0.93;;;0.90;;
5454;SDS011;2750;49.050;9.250;2023-12-20T22:54:57;2.07;;;1.10;;
5454;SDS011;2750;49.050;9.250;2023-12-20T22:59:59;0.80;;;0.80;;
5454;SDS011;2750;49.050;9.250;2023-12-20T23:05:03;0.80;;;0.70;;
5454;SDS011;2750;49.050;9.250;2023-12-20T23:10:06;1.40;;;1.00;;
5454;SDS011;2750;49.050;9.250;2023-12-20T23:15:08;1.47;;;1.20;;
5454;SDS011;2750;49.050;9.250;2023-12-20T23:20:11;1.43;;;1.00;;
5454;SDS011;2750;49.050;9.250;2023-12-20T23:25:13;2.10;;;1.10;;
5454;SDS011;2750;49.050;9.250;2023-12-20T23:30:15;1.33;;;1.00;;
5454;SDS011;2750;49.050;9.250;2023-12-20T23:35:18;1.60;;;1.00;;
5454;SDS011;2750;49.050;9.250;2023-12-20T23:40:19;1.50;;;1.00;;
5454;SDS011;2750;49.050;9.250;2023-12-20T23:45:21;1.17;;;0.80;;
5454;SDS011;2750;49.050;9.250;2023-12-20T23:50:24;2.37;;;1.10;;
5454;SDS011;2750;49.050;9.250;2023-12-20T23:55:25;1.00;;;0.90;;
